Time;durP1;ratioP1;P1;durP2;ratioP2;P2;SDS_P1;SDS_P2;PMS_P1;PMS_P2;Temp;Humidity;BMP_temperature;BMP_pressure;BME280_temperature;BME280_humidity;BME280_pressure;Samples;Min_cycle;Max_cycle;Signal;HPM_P1;HPM_P2
2023/01/05 00:02:32;;;;;;;37.05;7.47;;;;;;;10.01;100.00;101614.34;5005416;28;20042;-82
2023/01/05 00:05:29;;;;;;;40.00;8.23;;;;;;;10.03;100.00;101606.38;5003766;28;20038;-83
2023/01/05 00:07:57;;;;;;;36.45;7.80;;;;;;;9.95;100.00;101600.69;4989833;28;20034;-83
2023/01/05 00:24:12;;;;;;;36.42;7.90;;;;;;;9.85;100.00;101608.28;4986228;28;20045;-83
2023/01/05 00:26:40;;;;;;;34.95;7.28;;;;;;;9.78;100.00;101604.31;4986946;28;20038;-83
2023/01/05 00:29:26;;;;;;;37.40;7.43;;;;;;;9.79;100.00;101613.91;5003140;28;20044;-82
2023/01/05 00:36:10;;;;;;;35.03;7.30;;;;;;;9.72;100.00;101608.16;4988163;28;20474;-82
2023/01/05 00:39:30;;;;;;;36.63;7.55;;;;;;;9.71;100.00;101610.88;4988160;28;20041;-83
2023/01/05 00:42:33;;;;;;;34.63;7.20;;;;;;;9.68;100.00;101603.16;4984029;28;20031;-83
2023/01/05 00:45:16;;;;;;;;;;;;;;;9.72;100.00;101615.19;4968687;28;20038;-83
2023/01/05 00:51:23;;;;;;;29.58;7.22;;;;;;;9.57;100.00;101629.19;4984658;28;20034;-83
2023/01/05 00:58:03;;;;;;;35.40;7.45;;;;;;;9.47;100.00;101620.16;4996242;28;20487;-84
2023/01/05 01:00:54;;;;;;;35.33;7.32;;;;;;;9.36;100.00;101616.38;4989987;28;20046;-82
2023/01/05 01:03:27;;;;;;;33.72;7.68;;;;;;;9.31;100.00;101626.28;4992234;28;20511;-83
2023/01/05 01:09:33;;;;;;;37.15;7.32;;;;;;;9.24;100.00;101632.81;4992244;28;20435;-83
2023/01/05 01:15:52;;;;;;;38.67;7.57;;;;;;;9.20;100.00;101633.03;4990555;28;20046;-83
2023/01/05 01:18:20;;;;;;;37.25;7.72;;;;;;;9.10;100.00;101630.09;4993705;28;20141;-83
2023/01/05 01:21:10;;;;;;;34.83;7.93;;;;;;;9.11;100.00;101631.78;4994539;28;20089;-83
2023/01/05 01:23:45;;;;;;;46.53;8.32;;;;;;;9.05;100.00;101632.13;4990597;28;20037;-83
2023/01/05 01:26:15;;;;;;;36.35;7.43;;;;;;;8.97;100.00;101642.19;4983074;28;20471;-83
2023/01/05 01:28:49;;;;;;;35.42;8.05;;;;;;;8.97;100.00;101644.81;4992493;28;20030;-83
2023/01/05 01:31:28;;;;;;;32.75;7.70;;;;;;;8.92;100.00;101647.69;4992515;28;20113;-83
2023/01/05 01:34:13;;;;;;;40.50;7.88;;;;;;;8.93;100.00;101644.16;5009541;28;20141;-83
2023/01/05 01:36:48;;;;;;;40.85;8.23;;;;;;;8.90;100.00;101651.34;4991238;28;20098;-83
2023/01/05 01:39:29;;;;;;;45.55;8.52;;;;;;;8.90;100.00;101661.84;4990008;28;20121;-82
2023/01/05 01:42:07;;;;;;;36.83;7.35;;;;;;;8.91;100.00;101663.53;4988277;28;20031;-83
2023/01/05 01:45:24;;;;;;;35.47;7.60;;;;;;;8.96;100.00;101659.72;5005992;28;20054;-82
2023/01/05 01:48:37;;;;;;;41.80;7.78;;;;;;;8.97;100.00;101668.44;4987313;28;20034;-83
2023/01/05 01:51:09;;;;;;;35.70;8.68;;;;;;;8.97;100.00;101665.81;4976686;28;20068;-83
2023/01/05 01:53:57;;;;;;;35.00;7.20;;;;;;;9.02;100.00;101658.53;4986704;28;20031;-82
2023/01/05 01:56:34;;;;;;;38.65;7.93;;;;;;;9.01;100.00;101667.34;4987958;28;20278;-83
2023/01/05 02:02:40;;;;;;;40.33;9.20;;;;;;;9.06;100.00;101670.56;4999620;28;20038;-83
2023/01/05 02:05:15;;;;;;;37.97;8.57;;;;;;;9.06;100.00;101670.56;4970278;28;20039;-83
2023/01/05 02:08:47;;;;;;;;;;;;;;;;;;;;;
2023/01/05 02:18:43;;;;;;;37.03;8.98;;;;;;;9.13;100.00;101669.28;4977355;28;20541;-83
2023/01/05 02:21:53;;;;;;;39.05;8.23;;;;;;;9.15;100.00;101674.47;4971036;28;20057;-82
2023/01/05 02:25:02;;;;;;;36.47;7.75;;;;;;;9.19;100.00;101671.59;4954187;28;20459;-83
2023/01/05 02:27:49;;;;;;;36.67;7.72;;;;;;;9.21;100.00;101671.53;4960493;28;20161;-83
2023/01/05 02:30:39;;;;;;;43.25;7.95;;;;;;;9.23;100.00;101667.03;4988052;28;20027;-83
2023/01/05 02:33:34;;;;;;;42.65;9.00;;;;;;;9.25;100.00;101666.03;4986674;28;20046;-82
2023/01/05 02:36:12;;;;;;;37.85;7.65;;;;;;;9.27;100.00;101674.66;4990077;28;20038;-83
2023/01/05 02:39:14;;;;;;;43.55;8.98;;;;;;;9.32;100.00;101680.50;5007670;28;20049;-83
2023/01/05 02:42:29;;;;;;;37.25;7.53;;;;;;;9.33;100.00;101679.56;4989316;28;20510;-83
2023/01/05 02:44:54;;;;;;;41.90;8.95;;;;;;;9.33;100.00;101678.72;4969488;28;20100;-83
2023/01/05 02:47:52;;;;;;;35.78;8.20;;;;;;;9.34;100.00;101676.00;4973478;28;20027;-83
2023/01/05 02:50:46;;;;;;;37.30;7.95;;;;;;;9.35;100.00;101688.22;4990055;28;20425;-83
2023/01/05 02:53:35;;;;;;;35.65;8.32;;;;;;;9.35;100.00;101677.69;4992435;28;20042;-83
2023/01/05 02:56:26;;;;;;;37.28;7.35;;;;;;;9.39;100.00;101689.72;5005048;28;20034;-83
2023/01/05 02:58:57;;;;;;;35.80;7.15;;;;;;;9.40;100.00;101683.53;4989139;28;20108;-83
2023/01/05 03:02:00;;;;;;;38.17;8.57;;;;;;;9.46;100.00;101686.75;5003148;28;20853;-82
2023/01/05 03:05:16;;;;;;;31.88;7.68;;;;;;;9.48;100.00;101690.16;4988160;28;20030;-83
2023/01/05 03:08:09;;;;;;;42.17;7.65;;;;;;;9.49;100.00;101691.84;5003463;28;20038;-83
2023/01/05 03:17:12;;;;;;;34.80;7.13;;;;;;;9.56;100.00;101690.56;5003757;28;20517;-82
2023/01/05 03:20:30;;;;;;;34.28;8.05;;;;;;;9.57;100.00;101697.50;4990545;28;20042;-82
2023/01/05 03:35:43;;;;;;;31.15;6.95;;;;;;;9.64;100.00;101698.88;5007720;28;20049;-81
2023/01/05 03:39:01;;;;;;;34.80;8.07;;;;;;;9.67;100.00;101706.59;5007133;28;20034;-81
2023/01/05 03:41:27;;;;;;;33.38;7.63;;;;;;;9.63;100.00;101698.03;4973245;28;20126;-81
2023/01/05 03:44:11;;;;;;;38.58;8.07;;;;;;;9.68;100.00;101695.16;4985509;28;20505;-81
2023/01/05 03:47:08;;;;;;;30.15;7.32;;;;;;;9.68;100.00;101695.16;4969753;28;20395;-81
2023/01/05 03:49:34;;;;;;;37.53;8.05;;;;;;;9.66;100.00;101705.75;4970765;28;20105;-81
2023/01/05 03:52:00;;;;;;;30.20;6.93;;;;;;;9.68;100.00;101703.03;4971183;28;20472;-81
2023/01/05 04:04:16;;;;;;;30.20;6.88;;;;;;;9.74;100.00;101710.56;4986441;28;20037;-81
2023/01/05 04:09:34;;;;;;;33.63;7.30;;;;;;;9.79;100.00;101713.78;4979240;28;20092;-82
2023/01/05 04:12:00;;;;;;;36.90;7.28;;;;;;;9.79;100.00;101718.19;4990794;28;20034;-81
2023/01/05 04:14:37;;;;;;;30.83;7.20;;;;;;;9.79;100.00;101713.78;4987337;28;20026;-82
2023/01/05 04:17:37;;;;;;;41.00;8.38;;;;;;;9.82;100.00;101708.34;4974008;28;20055;-82
2023/01/05 04:20:20;;;;;;;40.08;7.95;;;;;;;9.79;100.00;101712.91;4968829;28;20026;-82
2023/01/05 04:22:51;;;;;;;;;;;;;;;9.85;100.00;101718.66;4991097;28;20026;-82
2023/01/05 04:25:23;;;;;;;34.30;7.15;;;;;;;9.77;100.00;101715.63;4989835;28;20465;-81
2023/01/05 04:28:07;;;;;;;36.17;7.68;;;;;;;9.81;100.00;101719.78;4987625;28;20030;-81
2023/01/05 04:30:36;;;;;;;37.15;7.60;;;;;;;9.78;100.00;101725.22;4986997;28;20069;-82
2023/01/05 04:33:31;;;;;;;40.30;7.82;;;;;;;9.84;100.00;101713.50;4986805;28;20117;-81
2023/01/05 04:36:14;;;;;;;34.53;7.30;;;;;;;9.80;100.00;101714.63;5002850;28;20113;-82
2023/01/05 04:38:40;;;;;;;37.20;8.10;;;;;;;9.78;100.00;101712.06;4989077;28;20450;-82
2023/01/05 04:41:35;;;;;;;38.28;7.90;;;;;;;9.79;100.00;101713.78;4989178;28;20109;-82
2023/01/05 04:44:34;;;;;;;34.92;6.97;;;;;;;9.82;100.00;101713.59;4968915;28;20034;-81
2023/01/05 04:47:07;;;;;;;32.58;7.20;;;;;;;9.81;100.00;101711.91;4986290;28;20480;-81
2023/01/05 04:50:22;;;;;;;32.53;6.88;;;;;;;9.81;100.00;101706.63;4981254;28;20039;-81
2023/01/05 04:52:53;;;;;;;36.33;7.00;;;;;;;9.85;100.00;101716.03;5000706;28;20571;-81
2023/01/05 04:58:21;;;;;;;35.20;7.85;;;;;;;9.83;100.00;101710.03;4996934;28;20045;-82
2023/01/05 05:03:39;;;;;;;37.75;7.75;;;;;;;9.84;100.00;101724.00;4978190;28;20049;-81
2023/01/05 05:10:01;;;;;;;41.17;8.23;;;;;;;9.86;100.00;101728.25;4964292;28;20150;-81
2023/01/05 05:12:57;;;;;;;;;;;;;;;;;;;;;
2023/01/05 05:15:39;;;;;;;37.03;7.28;;;;;;;9.88;100.00;101730.78;4972864;28;20517;-82
2023/01/05 05:18:59;;;;;;;;;;;;;;;;;;;;;
2023/01/05 05:21:33;;;;;;;38.42;7.50;;;;;;;9.92;100.00;101743.66;4987741;28;20098;-82
2023/01/05 05:24:21;;;;;;;35.65;7.45;;;;;;;9.92;100.00;101750.72;5003686;28;20026;-82
2023/01/05 05:27:31;;;;;;;37.70;7.93;;;;;;;9.91;100.00;101739.34;5005300;28;20032;-82
2023/01/05 05:30:34;;;;;;;37.60;8.00;;;;;;;9.94;100.00;101743.59;4987769;28;20044;-82
2023/01/05 05:33:27;;;;;;;37.97;8.43;;;;;;;9.90;100.00;101736.81;4975576;28;20038;-82
2023/01/05 05:36:30;;;;;;;;;;;;;;;;;;;;;
2023/01/05 05:39:39;;;;;;;38.53;7.72;;;;;;;9.91;100.00;101749.88;4988978;28;20041;-82
2023/01/05 05:42:39;;;;;;;36.95;8.10;;;;;;;9.91;100.00;101755.13;5002995;28;20045;-82
2023/01/05 05:45:14;;;;;;;44.30;8.75;;;;;;;9.88;100.00;101755.28;4988245;28;20458;-81
2023/01/05 05:48:00;;;;;;;38.58;7.85;;;;;;;9.87;100.00;101758.00;4991646;28;20059;-82
2023/01/05 05:50:38;;;;;;;36.13;7.50;;;;;;;9.88;100.00;101763.19;4990017;28;20030;-82
2023/01/05 05:53:33;;;;;;;35.15;7.90;;;;;;;9.88;100.00;101759.69;4990183;28;20065;-82
2023/01/05 05:56:37;;;;;;;39.83;7.78;;;;;;;9.92;100.00;101771.75;5005127;28;21712;-81
2023/01/05 06:02:55;;;;;;;45.35;8.95;;;;;;;9.83;100.00;101772.25;4980720;28;20037;-81
2023/01/05 06:05:21;;;;;;;35.70;8.27;;;;;;;9.81;100.00;101777.59;4971881;28;20029;-82
2023/01/05 06:08:42;;;;;;;39.72;7.95;;;;;;;9.83;100.00;101783.63;4989142;28;20042;-82
2023/01/05 06:11:10;;;;;;;37.92;8.15;;;;;;;9.81;100.00;101792.53;4937238;29;20495;-82
2023/01/05 06:14:13;;;;;;;41.08;8.43;;;;;;;9.82;100.00;101792.44;4916194;29;20047;-81
2023/01/05 06:16:39;;;;;;;37.63;8.68;;;;;;;9.79;100.00;101787.34;4974554;28;20054;-81
2023/01/05 06:19:30;;;;;;;45.90;8.68;;;;;;;9.83;100.00;101799.41;4992659;28;20177;-81
2023/01/05 06:22:31;;;;;;;37.20;8.75;;;;;;;9.79;100.00;101791.75;4991070;28;20089;-82
2023/01/05 06:25:28;;;;;;;;;;;;;;;;;;;;;
2023/01/05 06:28:00;;;;;;;42.50;9.02;;;;;;;9.80;100.00;101819.75;4991864;28;20389;-82
2023/01/05 06:30:43;;;;;;;44.85;9.27;;;;;;;9.81;100.00;101819.66;4992307;28;20023;-81
2023/01/05 06:33:27;;;;;;;40.72;9.00;;;;;;;9.80;100.00;101809.22;4991586;28;20402;-81
2023/01/05 06:35:57;;;;;;;38.20;8.35;;;;;;;9.79;100.00;101807.53;4982713;28;20483;-81
2023/01/05 06:38:26;;;;;;;41.22;8.65;;;;;;;9.79;100.00;101812.78;4971645;28;20045;-81
2023/01/05 06:40:54;;;;;;;43.42;8.98;;;;;;;9.74;100.00;101806.00;4981875;28;20022;-81
2023/01/05 06:44:16;;;;;;;45.08;9.70;;;;;;;9.79;100.00;101818.03;4990116;28;20026;-83
2023/01/05 06:46:55;;;;;;;40.78;9.18;;;;;;;9.80;100.00;101825.84;4991535;28;20060;-81
2023/01/05 06:49:21;;;;;;;46.58;9.32;;;;;;;9.78;100.00;101838.22;5006233;28;20041;-81
2023/01/05 06:51:59;;;;;;;;;;;;;;;;;;;;;
2023/01/05 06:54:36;;;;;;;46.83;10.02;;;;;;;9.79;100.00;101834.66;4990921;28;20509;-81
2023/01/05 06:57:05;;;;;;;44.80;8.82;;;;;;;9.78;100.00;101842.63;4988155;28;20084;-81
2023/01/05 06:59:34;;;;;;;45.50;9.55;;;;;;;9.79;100.00;101841.69;4980549;28;20061;-82
2023/01/05 07:02:11;;;;;;;41.38;8.07;;;;;;;9.74;100.00;101842.81;4988495;28;20030;-81
2023/01/05 07:04:39;;;;;;;45.85;9.18;;;;;;;9.76;100.00;101847.97;4990759;28;20034;-81
2023/01/05 07:07:07;;;;;;;46.78;9.23;;;;;;;9.76;100.00;101849.75;4991488;28;20026;-82
2023/01/05 07:09:32;;;;;;;48.25;9.98;;;;;;;9.71;100.00;101847.38;4988634;28;20034;-82
2023/01/05 07:12:01;;;;;;;50.00;9.73;;;;;;;9.71;100.00;101857.91;5007057;28;20022;-81
2023/01/05 07:14:49;;;;;;;52.63;10.38;;;;;;;9.74;100.00;101852.47;4990124;28;20030;-81
2023/01/05 07:17:29;;;;;;;45.75;9.20;;;;;;;9.72;100.00;101851.72;5006222;28;20051;-81
2023/01/05 07:20:00;;;;;;;52.30;10.32;;;;;;;9.72;100.00;101839.41;4991534;28;20053;-81
2023/01/05 07:22:55;;;;;;;47.63;9.82;;;;;;;9.71;100.00;101852.63;4990900;28;20033;-81
2023/01/05 07:25:58;;;;;;;43.13;9.30;;;;;;;9.76;100.00;101855.84;4990784;28;20471;-81
2023/01/05 07:29:25;;;;;;;51.63;9.73;;;;;;;9.74;100.00;101862.97;4987650;28;20066;-81
2023/01/05 07:31:59;;;;;;;47.22;9.35;;;;;;;9.70;100.00;101864.09;4971849;28;20057;-81
2023/01/05 07:34:54;;;;;;;48.80;10.38;;;;;;;9.70;100.00;101866.72;4990716;28;20022;-81
2023/01/05 07:37:58;;;;;;;46.30;8.82;;;;;;;9.71;100.00;101864.00;4991356;28;20018;-81
2023/01/05 07:40:27;;;;;;;45.22;10.63;;;;;;;9.68;100.00;101873.81;5025249;28;20482;-82
2023/01/05 07:42:58;;;;;;;51.70;10.60;;;;;;;9.67;100.00;101882.66;5012654;28;20545;-81
2023/01/05 07:46:04;;;;;;;47.42;9.15;;;;;;;9.67;100.00;101877.38;5011539;28;20033;-81
2023/01/05 07:48:29;;;;;;;48.83;9.13;;;;;;;9.65;100.00;101887.13;5028949;28;20029;-81
2023/01/05 07:51:13;;;;;;;;;;;;;;;;;;;;;
2023/01/05 07:53:39;;;;;;;45.08;9.52;;;;;;;9.62;100.00;101882.03;4988143;28;20026;-81
2023/01/05 07:56:05;;;;;;;50.47;10.38;;;;;;;9.64;100.00;101888.06;4993707;28;20023;-81
2023/01/05 07:58:31;;;;;;;49.28;10.02;;;;;;;9.63;100.00;101887.22;4983927;28;20033;-81
2023/01/05 08:01:05;;;;;;;42.35;9.40;;;;;;;9.64;100.00;101895.94;4988126;28;20022;-81
2023/01/05 08:03:52;;;;;;;;;;;;;;;;;;;;;
2023/01/05 08:06:19;;;;;;;52.35;9.40;;;;;;;9.62;100.00;101897.81;4987622;28;20022;-81
2023/01/05 08:08:45;;;;;;;51.75;9.50;;;;;;;9.64;100.00;101901.19;4990235;28;20037;-81
2023/01/05 08:11:16;;;;;;;47.80;9.48;;;;;;;9.65;100.00;101906.38;4993080;28;20035;-81
2023/01/05 08:14:23;;;;;;;47.83;10.20;;;;;;;9.70;100.00;101906.13;4985265;28;20407;-81
2023/01/05 08:17:43;;;;;;;43.13;8.90;;;;;;;9.69;100.00;101907.91;4965865;28;20046;-81
2023/01/05 08:20:09;;;;;;;43.55;9.20;;;;;;;9.68;100.00;101905.38;4987710;28;20062;-81
2023/01/05 08:23:00;;;;;;;49.15;10.63;;;;;;;9.72;100.00;101912.16;5003912;28;20066;-81
2023/01/05 08:25:32;;;;;;;43.55;8.85;;;;;;;9.70;100.00;101909.59;4989375;28;20057;-81
2023/01/05 08:28:24;;;;;;;42.63;9.27;;;;;;;9.72;100.00;101917.41;4992814;28;20069;-81
2023/01/05 08:30:49;;;;;;;41.92;9.23;;;;;;;9.72;100.00;101909.53;4966249;28;20038;-80
2023/01/05 08:33:53;;;;;;;42.55;9.05;;;;;;;9.76;100.00;101923.34;4998837;28;20368;-80
2023/01/05 08:36:30;;;;;;;49.17;9.27;;;;;;;9.71;100.00;101920.97;4981332;28;20584;-80
2023/01/05 08:39:04;;;;;;;40.20;9.02;;;;;;;9.71;100.00;101931.47;5007524;28;20058;-80
2023/01/05 08:44:50;;;;;;;50.75;9.75;;;;;;;9.72;100.00;101936.66;4988040;28;20128;-80
2023/01/05 08:47:16;;;;;;;49.28;9.35;;;;;;;9.74;100.00;101939.19;4994002;28;20029;-80
2023/01/05 08:49:41;;;;;;;46.55;9.57;;;;;;;9.75;100.00;101943.53;4992230;28;20062;-80
2023/01/05 08:52:07;;;;;;;47.20;8.93;;;;;;;9.77;100.00;101957.44;4968878;28;20067;-81
2023/01/05 08:54:33;;;;;;;45.80;9.90;;;;;;;9.79;100.00;101957.34;4980646;28;20117;-81
2023/01/05 08:57:05;;;;;;;46.45;9.63;;;;;;;9.80;100.00;101961.66;4983622;28;20526;-79
2023/01/05 08:59:41;;;;;;;41.90;9.20;;;;;;;9.83;100.00;101961.50;4987692;28;20084;-81
2023/01/05 09:02:10;;;;;;;53.28;10.48;;;;;;;9.83;100.00;101961.50;4987325;28;20030;-81
2023/01/05 09:04:36;;;;;;;49.50;10.20;;;;;;;9.84;100.00;101964.06;5005567;28;20475;-80
2023/01/05 09:07:01;;;;;;;46.85;9.70;;;;;;;9.89;100.00;101963.81;4990330;28;20068;-81
2023/01/05 09:09:27;;;;;;;43.38;9.48;;;;;;;9.91;100.00;101964.56;5023510;28;20133;-81
2023/01/05 09:11:52;;;;;;;46.83;9.23;;;;;;;9.97;100.00;101970.34;5029746;28;20127;-81
2023/01/05 09:14:17;;;;;;;43.85;9.02;;;;;;;10.00;100.00;101975.44;5025043;28;20026;-81
2023/01/05 09:16:43;;;;;;;40.90;9.05;;;;;;;10.05;100.00;101978.69;5014832;28;20041;-84
2023/01/05 09:19:24;;;;;;;48.58;10.63;;;;;;;10.10;100.00;101974.97;5026619;28;20046;-86
2023/01/05 09:21:51;;;;;;;46.80;9.27;;;;;;;10.11;100.00;101977.50;5016332;28;20037;-83
2023/01/05 09:24:17;;;;;;;43.55;9.23;;;;;;;10.13;100.00;101974.81;5041326;28;20052;-83
2023/01/05 09:26:42;;;;;;;42.83;9.77;;;;;;;10.13;100.00;101980.06;5009857;28;20417;-83
2023/01/05 09:29:09;;;;;;;46.28;9.57;;;;;;;10.10;100.00;101985.50;5013295;28;20112;-82
2023/01/05 09:31:34;;;;;;;38.53;8.50;;;;;;;10.12;100.00;101978.38;5012784;28;20025;-83
2023/01/05 09:34:00;;;;;;;51.13;10.02;;;;;;;10.17;100.00;101986.84;5018710;28;20025;-80
2023/01/05 09:36:25;;;;;;;47.40;10.38;;;;;;;10.18;100.00;101991.19;5044802;28;20029;-80
2023/01/05 09:38:52;;;;;;;48.25;9.63;;;;;;;10.17;100.00;101994.75;5032693;28;20185;-80
2023/01/05 09:41:34;;;;;;;44.58;9.63;;;;;;;10.18;100.00;101993.81;5018683;28;20042;-81
2023/01/05 09:44:04;;;;;;;49.08;9.98;;;;;;;10.17;100.00;102000.00;5017844;28;20025;-83
2023/01/05 09:47:01;;;;;;;48.95;10.45;;;;;;;10.17;100.00;101997.38;5011213;28;20050;-82
2023/01/05 09:49:25;;;;;;;41.83;8.93;;;;;;;10.12;100.00;102002.03;4992534;28;20402;-83
2023/01/05 09:52:16;;;;;;;44.35;9.25;;;;;;;10.17;100.00;102014.00;5002541;28;20030;-83
2023/01/05 09:54:41;;;;;;;49.78;9.07;;;;;;;10.18;100.00;102014.84;5031471;28;20028;-83
2023/01/05 09:57:39;;;;;;;47.75;9.50;;;;;;;10.22;100.00;102016.41;5029369;28;20022;-83
2023/01/05 10:00:07;;;;;;;42.40;8.88;;;;;;;10.22;100.00;102017.25;5031591;28;20037;-84
2023/01/05 10:02:48;;;;;;;51.42;10.63;;;;;;;10.27;100.00;102017.00;5033090;28;20112;-84
2023/01/05 10:05:17;;;;;;;49.30;9.93;;;;;;;10.23;100.00;102018.13;4993177;28;20045;-84
2023/01/05 10:07:56;;;;;;;48.47;10.27;;;;;;;10.30;100.00;102020.31;5026085;28;20116;-83
2023/01/05 10:10:37;;;;;;;49.22;10.13;;;;;;;10.31;100.00;102027.28;5020467;28;20033;-83
2023/01/05 10:13:23;;;;;;;44.28;8.95;;;;;;;10.31;100.00;102026.44;5046936;28;20481;-81
2023/01/05 10:15:52;;;;;;;52.08;9.82;;;;;;;10.31;100.00;102024.66;5032697;28;20393;-81
2023/01/05 10:18:31;;;;;;;42.33;9.00;;;;;;;10.35;100.00;102025.34;5032196;28;20401;-81
2023/01/05 10:21:11;;;;;;;45.05;9.90;;;;;;;10.34;100.00;102031.53;5020074;28;20669;-83
2023/01/05 10:23:40;;;;;;;50.25;9.80;;;;;;;10.36;100.00;102024.41;5027822;28;20037;-83
2023/01/05 10:26:33;;;;;;;48.05;9.10;;;;;;;10.40;100.00;102036.44;5018706;28;20029;-83
2023/01/05 10:29:09;;;;;;;45.58;9.48;;;;;;;10.44;100.00;102042.44;5026779;28;20033;-80
2023/01/05 10:31:46;;;;;;;41.80;9.15;;;;;;;10.44;100.00;102043.28;5027328;28;20034;-81
2023/01/05 10:34:23;;;;;;;41.03;9.65;;;;;;;10.46;100.00;102048.47;5010038;28;20060;-84
2023/01/05 10:37:11;;;;;;;48.40;10.25;;;;;;;10.46;100.00;102041.41;5032331;28;20603;-81
2023/01/05 10:40:08;;;;;;;42.78;10.48;;;;;;;10.48;100.00;102042.19;5027538;28;20073;-81
2023/01/05 10:42:36;;;;;;;42.20;9.40;;;;;;;10.39;100.00;102039.16;5026530;28;20029;-83
2023/01/05 10:45:05;;;;;;;46.28;9.60;;;;;;;10.39;100.00;102040.00;5023300;28;20029;-83
2023/01/05 10:47:36;;;;;;;48.60;10.40;;;;;;;10.38;100.00;102043.59;5021453;28;20029;-83
2023/01/05 10:50:26;;;;;;;42.70;9.55;;;;;;;10.39;100.00;102040.00;5013157;28;20086;-83
2023/01/05 10:52:52;;;;;;;52.60;10.13;;;;;;;10.36;100.00;102042.81;5035504;28;20030;-83
2023/01/05 10:55:22;;;;;;;38.40;9.73;;;;;;;10.34;100.00;102047.31;5014312;28;20057;-84
2023/01/05 10:57:51;;;;;;;45.78;9.65;;;;;;;10.36;100.00;102040.19;5029049;28;20021;-83
2023/01/05 11:00:37;;;;;;;49.72;9.75;;;;;;;10.36;100.00;102054.19;5043545;28;20052;-82
2023/01/05 11:03:13;;;;;;;46.42;9.32;;;;;;;10.40;100.00;102046.97;5010945;28;20033;-84
2023/01/05 11:05:46;;;;;;;44.17;10.25;;;;;;;10.43;100.00;102046.84;5016427;28;20389;-84
2023/01/05 11:08:29;;;;;;;51.40;10.68;;;;;;;10.42;100.00;102050.41;5013473;28;20389;-84
2023/01/05 11:10:56;;;;;;;;;;;;;;;10.54;100.00;102054.16;5008644;28;20084;-83
2023/01/05 11:13:45;;;;;;;39.22;9.50;;;;;;;10.52;100.00;102056.00;5010194;28;19932;-84
2023/01/05 11:16:13;;;;;;;42.15;9.23;;;;;;;10.52;100.00;102054.22;5010763;28;20025;-84
2023/01/05 11:19:15;;;;;;;44.75;9.07;;;;;;;10.57;100.00;102062.72;5011516;28;20050;-84
2023/01/05 11:21:45;;;;;;;42.75;9.60;;;;;;;10.52;100.00;102053.38;5019913;28;20056;-84
2023/01/05 11:24:22;;;;;;;42.10;8.80;;;;;;;10.54;100.00;102049.72;5030564;28;20379;-82
2023/01/05 11:27:09;;;;;;;51.75;9.88;;;;;;;10.53;99.43;102042.78;5024015;28;20021;-84
2023/01/05 11:29:34;;;;;;;46.13;10.20;;;;;;;10.57;99.59;102044.31;5008991;28;20100;-83
2023/01/05 11:32:09;;;;;;;40.20;8.68;;;;;;;10.57;99.86;102046.94;5018363;28;20030;-83
2023/01/05 11:34:40;;;;;;;45.72;10.32;;;;;;;10.62;100.00;102031.72;5008808;28;20524;-84
2023/01/05 11:37:12;;;;;;;43.67;9.13;;;;;;;10.66;99.05;102030.63;5016368;28;20041;-83
2023/01/05 11:39:41;;;;;;;36.30;8.60;;;;;;;10.70;98.65;102031.31;5013212;28;20395;-84
2023/01/05 11:42:13;;;;;;;41.17;9.23;;;;;;;10.71;99.12;102040.06;5023152;28;20021;-84
2023/01/05 11:45:29;;;;;;;53.37;9.40;;;;;;;10.78;98.87;102033.50;5024914;28;20479;-83
2023/01/05 11:48:02;;;;;;;39.92;9.02;;;;;;;10.69;97.92;102021.72;5010250;28;20046;-83
2023/01/05 11:50:31;;;;;;;39.92;9.05;;;;;;;10.70;97.60;102033.09;5021152;28;20038;-83
2023/01/05 11:52:59;;;;;;;35.97;8.70;;;;;;;10.66;97.44;102033.25;5006478;28;20033;-84
2023/01/05 11:55:43;;;;;;;43.70;9.18;;;;;;;10.65;98.39;102021.03;5023338;28;20030;-84
2023/01/05 11:58:20;;;;;;;43.10;9.13;;;;;;;10.59;97.85;102021.38;5019945;28;20029;-81
2023/01/05 12:01:14;;;;;;;42.05;9.07;;;;;;;10.60;98.04;102017.81;5010646;28;20098;-83
2023/01/05 12:03:53;;;;;;;;;;;;;;;10.64;99.00;102014.06;5025694;28;20053;-81
2023/01/05 12:06:43;;;;;;;42.38;8.70;;;;;;;10.64;98.50;102014.06;5006339;28;19913;-83
2023/01/05 12:09:32;;;;;;;46.08;9.27;;;;;;;10.64;97.55;102026.38;5009670;28;20056;-84
2023/01/05 12:12:32;;;;;;;38.83;8.45;;;;;;;10.66;98.92;102012.19;5009155;28;20390;-84
2023/01/05 12:15:09;;;;;;;46.92;9.57;;;;;;;10.64;97.67;102019.34;4996686;28;20036;-81
2023/01/05 12:17:50;;;;;;;49.13;9.57;;;;;;;10.55;97.32;102019.84;5025990;28;20140;-84
2023/01/05 12:20:54;;;;;;;39.05;9.18;;;;;;;10.57;98.53;102023.25;5004383;28;20026;-83
2023/01/05 12:23:31;;;;;;;39.70;9.48;;;;;;;10.49;98.58;102016.72;5002030;28;20045;-83
2023/01/05 12:26:13;;;;;;;45.60;9.07;;;;;;;10.53;98.40;102024.34;5019268;28;20018;-84
2023/01/05 12:28:59;;;;;;;39.17;9.25;;;;;;;10.59;98.92;102020.53;5010279;28;20190;-84
2023/01/05 12:31:49;;;;;;;37.78;8.98;;;;;;;10.60;98.84;102012.53;5008515;28;20124;-83
2023/01/05 12:34:37;;;;;;;42.17;9.63;;;;;;;10.65;98.50;102015.78;5009639;28;20053;-84
2023/01/05 12:37:18;;;;;;;39.97;8.85;;;;;;;10.72;97.02;102020.69;5016489;28;20034;-83
2023/01/05 12:39:59;;;;;;;43.55;9.02;;;;;;;10.84;97.21;102015.59;5022938;28;20045;-83
2023/01/05 12:42:36;;;;;;;39.17;9.45;;;;;;;10.86;97.25;102018.16;5010211;28;20068;-84
2023/01/05 12:45:23;;;;;;;42.85;9.52;;;;;;;10.82;96.50;102014.00;5011619;28;20037;-84
2023/01/05 12:47:58;;;;;;;42.30;9.80;;;;;;;10.81;97.59;102007.88;5009741;28;20034;-84
2023/01/05 12:50:42;;;;;;;47.55;10.02;;;;;;;10.85;97.50;102001.50;5024434;28;20044;-83
2023/01/05 12:53:34;;;;;;;45.53;10.00;;;;;;;10.87;97.95;102001.41;4996163;28;20114;-84
2023/01/05 12:56:11;;;;;;;41.72;9.73;;;;;;;10.89;98.27;102003.03;4996179;28;20026;-83
2023/01/05 12:58:48;;;;;;;36.45;8.50;;;;;;;10.86;97.07;102005.84;5020100;28;20125;-84
2023/01/05 13:01:23;;;;;;;43.97;10.00;;;;;;;10.85;97.10;102009.41;5012534;28;20117;-84
2023/01/05 13:03:58;;;;;;;43.90;9.48;;;;;;;10.86;97.33;101997.09;5012045;28;20022;-84
2023/01/05 13:06:35;;;;;;;41.10;9.85;;;;;;;10.88;96.89;102000.47;5013955;28;20025;-83
2023/01/05 13:09:14;;;;;;;46.28;9.10;;;;;;;10.93;96.89;101996.66;5013682;28;20034;-84
2023/01/05 13:11:46;;;;;;;41.92;8.80;;;;;;;10.91;96.08;101987.13;5013525;28;20096;-83
2023/01/05 13:14:37;;;;;;;43.55;9.20;;;;;;;10.95;96.34;101992.13;5005302;28;20104;-83
2023/01/05 13:17:14;;;;;;;42.55;8.82;;;;;;;10.98;96.70;101991.97;5013026;28;20029;-82
2023/01/05 13:19:49;;;;;;;41.22;8.98;;;;;;;10.95;96.62;101996.56;5012921;28;20046;-83
2023/01/05 13:22:32;;;;;;;37.28;8.82;;;;;;;10.89;96.26;101991.66;5012286;28;20021;-82
2023/01/05 13:25:21;;;;;;;35.88;8.25;;;;;;;10.79;96.57;101990.44;5012117;28;20108;-81
2023/01/05 13:27:49;;;;;;;41.97;8.95;;;;;;;10.77;96.75;101997.59;5013402;28;20132;-81
2023/01/05 13:30:33;;;;;;;37.80;8.98;;;;;;;10.76;97.02;102001.16;5007394;28;20022;-83
2023/01/05 13:33:30;;;;;;;42.50;9.60;;;;;;;10.78;97.59;102005.41;5011935;28;20014;-83
2023/01/05 13:36:40;;;;;;;43.53;9.15;;;;;;;10.80;97.62;101993.00;5012774;28;20242;-82
2023/01/05 13:39:27;;;;;;;37.28;9.63;;;;;;;10.82;97.12;101992.94;5016726;28;20042;-83
2023/01/05 13:42:10;;;;;;;39.85;9.07;;;;;;;10.88;96.99;101997.84;5013395;28;20037;-83
2023/01/05 13:45:05;;;;;;;39.08;8.32;;;;;;;10.92;96.44;101997.59;4999569;28;20076;-84
2023/01/05 13:48:10;;;;;;;42.72;9.38;;;;;;;10.95;97.09;101986.88;5010694;28;20061;-84
2023/01/05 13:50:51;;;;;;;49.30;10.63;;;;;;;10.92;96.90;101991.47;5012215;28;20141;-83
2023/01/05 13:53:33;;;;;;;37.72;9.13;;;;;;;10.91;97.34;102000.31;5009628;28;20396;-83
2023/01/05 13:56:10;;;;;;;37.50;9.35;;;;;;;10.90;96.66;101988.94;5011894;28;20030;-81
2023/01/05 13:58:44;;;;;;;46.17;9.38;;;;;;;10.86;97.35;101989.19;5039176;28;20033;-80
2023/01/05 14:01:19;;;;;;;50.15;9.98;;;;;;;10.86;97.12;101984.78;5009476;28;20030;-81
2023/01/05 14:03:51;;;;;;;37.30;8.98;;;;;;;10.87;96.62;101983.00;5006929;28;20109;-81
2023/01/05 14:06:22;;;;;;;43.20;10.50;;;;;;;10.87;98.01;101985.63;5012703;28;20026;-82